sensor_id;sensor_type;location;lat;lon;timestamp;pressure;altitude;pressure_sealevel;temperature;humidity
73306;BME280;61530;51.158;0.880;2023-05-08T00:00:16;1017.68;;;12.0;38.4684
73306;BME280;61530;51.158;0.880;2023-05-08T00:01:19;1017.66;;;11.9375;37.6732
73306;BME280;61530;51.158;0.880;2023-05-08T00:02:23;1017.67;;;12.0;37.4059
73306;BME280;61530;51.158;0.880;2023-05-08T00:03:26;1017.68;;;12.0;37.1377
73306;BME280;61530;51.158;0.880;2023-05-08T00:04:32;1017.66;;;11.875;37.6013
73306;BME280;61530;51.158;0.880;2023-05-08T00:05:35;1017.66;;;11.8125;36.8979
73306;BME280;61530;51.158;0.880;2023-05-08T00:06:39;1017.62;;;11.875;36.9794
73306;BME280;61530;51.158;0.880;2023-05-08T00:07:42;1017.62;;;11.9375;36.4979
73306;BME280;61530;51.158;0.880;2023-05-08T00:08:48;1017.62;;;11.9375;36.9963
73306;BME280;61530;51.158;0.880;2023-05-08T00:09:51;1017.59;;;11.875;36.9214
73306;BME280;61530;51.158;0.880;2023-05-08T00:10:55;1017.57;;;11.9375;36.6826
73306;BME280;61530;51.158;0.880;2023-05-08T00:11:58;1017.58;;;11.9375;36.9387
73306;BME280;61530;51.158;0.880;2023-05-08T00:13:04;1017.54;;;11.875;36.8695
73306;BME280;61530;51.158;0.880;2023-05-08T00:14:07;1017.55;;;11.8125;37.258
73306;BME280;61530;51.158;0.880;2023-05-08T00:15:11;1017.56;;;11.8125;36.7892
73306;BME280;61530;51.158;0.880;2023-05-08T00:16:14;1017.57;;;11.8125;36.8355
73306;BME280;61530;51.158;0.880;2023-05-08T00:17:20;1017.55;;;11.75;36.8529
73306;BME280;61530;51.158;0.880;2023-05-08T00:18:23;1017.54;;;11.8125;37.1894
73306;BME280;61530;51.158;0.880;2023-05-08T00:19:27;1017.55;;;11.8125;37.0103
73306;BME280;61530;51.158;0.880;2023-05-08T00:20:30;1017.53;;;11.75;37.1443
73306;BME280;61530;51.158;0.880;2023-05-08T00:21:36;1017.53;;;11.75;36.9176
73306;BME280;61530;51.158;0.880;2023-05-08T00:22:39;1017.51;;;11.8125;36.692
73306;BME280;61530;51.158;0.880;2023-05-08T00:23:43;1017.51;;;11.75;37.2084
73306;BME280;61530;51.158;0.880;2023-05-08T00:24:46;1017.52;;;11.8125;36.9006
73306;BME280;61530;51.158;0.880;2023-05-08T00:25:52;1017.54;;;11.8125;36.8779
73306;BME280;61530;51.158;0.880;2023-05-08T00:26:55;1017.55;;;11.625;36.9249
73306;BME280;61530;51.158;0.880;2023-05-08T00:27:59;1017.55;;;11.5625;37.2672
73306;BME280;61530;51.158;0.880;2023-05-08T00:29:03;1017.56;;;11.5;36.7174
73306;BME280;61530;51.158;0.880;2023-05-08T00:30:09;1017.62;;;11.5625;37.8551
73306;BME280;61530;51.158;0.880;2023-05-08T00:31:11;1017.61;;;11.5;37.4148
73306;BME280;61530;51.158;0.880;2023-05-08T00:32:15;1017.63;;;11.5;37.3732
73306;BME280;61530;51.158;0.880;2023-05-08T00:33:18;1017.63;;;11.4375;37.1996
73306;BME280;61530;51.158;0.880;2023-05-08T00:34:24;1017.65;;;11.5;37.2813
73306;BME280;61530;51.158;0.880;2023-05-08T00:35:27;1017.63;;;11.5;37.5878
73306;BME280;61530;51.158;0.880;2023-05-08T00:36:31;1017.67;;;11.5;37.2451
73306;BME280;61530;51.158;0.880;2023-05-08T00:37:34;1017.67;;;11.4375;37.1236
73306;BME280;61530;51.158;0.880;2023-05-08T00:38:40;1017.69;;;11.4375;37.2161
73306;BME280;61530;51.158;0.880;2023-05-08T00:39:43;1017.69;;;11.4375;37.5404
73306;BME280;61530;51.158;0.880;2023-05-08T00:40:47;1017.72;;;11.5;36.8862
73306;BME280;61530;51.158;0.880;2023-05-08T00:41:50;1017.69;;;11.5;37.1822
73306;BME280;61530;51.158;0.880;2023-05-08T00:42:56;1017.7;;;11.5625;36.8472
73306;BME280;61530;51.158;0.880;2023-05-08T00:43:59;1017.71;;;11.5625;36.8218
73306;BME280;61530;51.158;0.880;2023-05-08T00:45:03;1017.71;;;11.5625;36.705
73306;BME280;61530;51.158;0.880;2023-05-08T00:46:07;1017.71;;;11.625;36.5543
73306;BME280;61530;51.158;0.880;2023-05-08T00:47:12;1017.7;;;11.5;36.3398
73306;BME280;61530;51.158;0.880;2023-05-08T00:48:15;1017.74;;;11.4375;37.0364
73306;BME280;61530;51.158;0.880;2023-05-08T00:49:19;1017.73;;;11.25;36.6716
73306;BME280;61530;51.158;0.880;2023-05-08T00:50:22;1017.75;;;11.375;37.3031
73306;BME280;61530;51.158;0.880;2023-05-08T00:51:28;1017.7;;;11.3125;36.7318
73306;BME280;61530;51.158;0.880;2023-05-08T00:52:32;1017.71;;;11.3125;36.9394
73306;BME280;61530;51.158;0.880;2023-05-08T00:53:38;1017.68;;;11.375;37.3098
73306;BME280;61530;51.158;0.880;2023-05-08T00:54:39;1017.64;;;11.3125;36.8589
73306;BME280;61530;51.158;0.880;2023-05-08T00:55:44;1017.6;;;11.375;37.2987
73306;BME280;61530;51.158;0.880;2023-05-08T00:56:49;1017.59;;;11.3125;37.0555
73306;BME280;61530;51.158;0.880;2023-05-08T00:57:51;1017.56;;;11.3125;36.6963
73306;BME280;61530;51.158;0.880;2023-05-08T00:58:54;1017.56;;;11.375;37.3161
73306;BME280;61530;51.158;0.880;2023-05-08T01:00:01;1017.53;;;11.375;37.0436
73306;BME280;61530;51.158;0.880;2023-05-08T01:01:04;1017.54;;;11.3125;36.7014
73306;BME280;61530;51.158;0.880;2023-05-08T01:02:07;1017.54;;;11.3125;36.8647
73306;BME280;61530;51.158;0.880;2023-05-08T01:03:11;1017.54;;;11.25;36.9519
73306;BME280;61530;51.158;0.880;2023-05-08T01:04:20;1017.53;;;11.1875;36.8486
73306;BME280;61530;51.158;0.880;2023-05-08T01:05:19;1017.53;;;11.125;37.2069
73306;BME280;61530;51.158;0.880;2023-05-08T01:06:23;1017.51;;;11.1875;37.0447
73306;BME280;61530;51.158;0.880;2023-05-08T01:07:26;1017.54;;;11.125;37.5027
73306;BME280;61530;51.158;0.880;2023-05-08T01:08:32;1017.51;;;11.0625;36.9812
73306;BME280;61530;51.158;0.880;2023-05-08T01:09:36;1017.48;;;11.0;37.2078
73306;BME280;61530;51.158;0.880;2023-05-08T01:10:46;1017.49;;;11.0;37.028
73306;BME280;61530;51.158;0.880;2023-05-08T01:11:46;1017.43;;;11.0;36.9645
73306;BME280;61530;51.158;0.880;2023-05-08T01:13:04;1017.42;;;10.9375;36.9005
73306;BME280;61530;51.158;0.880;2023-05-08T01:13:59;1017.44;;;11.0625;36.871
73306;BME280;61530;51.158;0.880;2023-05-08T01:15:06;1017.39;;;11.125;36.5415
73306;BME280;61530;51.158;0.880;2023-05-08T01:16:11;1017.4;;;11.125;35.9451
73306;BME280;61530;51.158;0.880;2023-05-08T01:17:09;1017.4;;;11.1875;36.7153
73306;BME280;61530;51.158;0.880;2023-05-08T01:18:12;1017.4;;;11.25;36.8082
73306;BME280;61530;51.158;0.880;2023-05-08T01:19:31;1017.36;;;11.25;36.8484
73306;BME280;61530;51.158;0.880;2023-05-08T01:20:28;1017.36;;;11.25;36.9124
73306;BME280;61530;51.158;0.880;2023-05-08T01:21:26;1017.34;;;11.125;37.3874
73306;BME280;61530;51.158;0.880;2023-05-08T01:22:40;1017.36;;;11.0625;36.6356
73306;BME280;61530;51.158;0.880;2023-05-08T01:23:41;1017.33;;;11.0;37.3253
73306;BME280;61530;51.158;0.880;2023-05-08T01:24:48;1017.34;;;11.0;37.1339
73306;BME280;61530;51.158;0.880;2023-05-08T01:26:07;1017.33;;;10.875;37.539
73306;BME280;61530;51.158;0.880;2023-05-08T01:26:57;1017.34;;;11.0;37.0755
73306;BME280;61530;51.158;0.880;2023-05-08T01:28:03;1017.33;;;11.0;37.348
73306;BME280;61530;51.158;0.880;2023-05-08T01:32:14;1017.35;;;11.0;36.877
73306;BME280;61530;51.158;0.880;2023-05-08T01:33:23;1017.32;;;11.125;36.2367
73306;BME280;61530;51.158;0.880;2023-05-08T01:34:24;1017.32;;;11.0;36.9597
73306;BME280;61530;51.158;0.880;2023-05-08T01:35:31;1017.31;;;11.0;36.5945
73306;BME280;61530;51.158;0.880;2023-05-08T01:36:35;1017.32;;;10.875;36.8961
73306;BME280;61530;51.158;0.880;2023-05-08T01:37:40;1017.28;;;11.0;36.5425
73306;BME280;61530;51.158;0.880;2023-05-08T01:38:46;1017.3;;;10.875;37.0178
73306;BME280;61530;51.158;0.880;2023-05-08T01:39:48;1017.29;;;10.9375;36.4447
73306;BME280;61530;51.158;0.880;2023-05-08T01:40:52;1017.3;;;10.9375;36.618
73306;BME280;61530;51.158;0.880;2023-05-08T01:41:57;1017.3;;;11.0;36.2473
73306;BME280;61530;51.158;0.880;2023-05-08T01:43:05;1017.33;;;11.0625;36.3855
73306;BME280;61530;51.158;0.880;2023-05-08T01:44:09;1017.31;;;10.9375;36.1777
73306;BME280;61530;51.158;0.880;2023-05-08T01:45:17;1017.31;;;10.9375;36.4439
73306;BME280;61530;51.158;0.880;2023-05-08T01:46:12;1017.32;;;10.8125;36.9426
73306;BME280;61530;51.158;0.880;2023-05-08T01:47:11;1017.31;;;10.8125;36.7115
73306;BME280;61530;51.158;0.880;2023-05-08T01:48:21;1017.32;;;10.6875;36.4624
73306;BME280;61530;51.158;0.880;2023-05-08T01:49:24;1017.31;;;10.8125;36.1741
73306;BME280;61530;51.158;0.880;2023-05-08T01:50:29;1017.3;;;10.75;36.5851
73306;BME280;61530;51.158;0.880;2023-05-08T01:51:28;1017.31;;;10.8125;36.5673
73306;BME280;61530;51.158;0.880;2023-05-08T01:52:34;1017.32;;;10.8125;36.5379
73306;BME280;61530;51.158;0.880;2023-05-08T01:53:39;1017.28;;;10.6875;36.5562
73306;BME280;61530;51.158;0.880;2023-05-08T01:54:43;1017.29;;;10.625;36.741
73306;BME280;61530;51.158;0.880;2023-05-08T01:55:43;1017.27;;;10.75;36.2788
73306;BME280;61530;51.158;0.880;2023-05-08T01:56:49;1017.24;;;10.75;36.1985
73306;BME280;61530;51.158;0.880;2023-05-08T01:57:53;1017.27;;;10.75;36.1624
73306;BME280;61530;51.158;0.880;2023-05-08T01:58:57;1017.23;;;10.8125;36.6267
73306;BME280;61530;51.158;0.880;2023-05-08T02:00:00;1017.23;;;10.875;36.7831
73306;BME280;61530;51.158;0.880;2023-05-08T02:01:05;1017.24;;;10.75;36.8745
73306;BME280;61530;51.158;0.880;2023-05-08T02:02:08;1017.27;;;10.75;36.1416
73306;BME280;61530;51.158;0.880;2023-05-08T02:03:13;1017.25;;;10.75;36.6088
73306;BME280;61530;51.158;0.880;2023-05-08T02:04:15;1017.28;;;10.625;36.7485
73306;BME280;61530;51.158;0.880;2023-05-08T02:05:21;1017.29;;;10.6875;36.6907
73306;BME280;61530;51.158;0.880;2023-05-08T02:06:24;1017.29;;;10.625;36.4588
73306;BME280;61530;51.158;0.880;2023-05-08T02:07:27;1017.28;;;10.75;36.4727
73306;BME280;61530;51.158;0.880;2023-05-08T02:08:31;1017.23;;;10.625;36.7843
73306;BME280;61530;51.158;0.880;2023-05-08T02:09:37;1017.21;;;10.6875;36.821
73306;BME280;61530;51.158;0.880;2023-05-08T02:10:40;1017.21;;;10.625;37.3781
73306;BME280;61530;51.158;0.880;2023-05-08T02:11:43;1017.22;;;10.625;37.15
73306;BME280;61530;51.158;0.880;2023-05-08T02:12:47;1017.18;;;10.6875;36.9925
73306;BME280;61530;51.158;0.880;2023-05-08T02:13:52;1017.16;;;10.5625;36.796
73306;BME280;61530;51.158;0.880;2023-05-08T02:14:56;1017.16;;;10.4375;36.6169
73306;BME280;61530;51.158;0.880;2023-05-08T02:16:00;1017.14;;;10.4375;36.7899
73306;BME280;61530;51.158;0.880;2023-05-08T02:17:03;1017.11;;;10.4375;36.4893
73306;BME280;61530;51.158;0.880;2023-05-08T02:18:08;1017.1;;;10.5;36.3743
73306;BME280;61530;51.158;0.880;2023-05-08T02:19:12;1017.11;;;10.5;36.2983
73306;BME280;61530;51.158;0.880;2023-05-08T02:20:15;1017.09;;;10.5;36.8133
73306;BME280;61530;51.158;0.880;2023-05-08T02:21:19;1017.08;;;10.375;36.599
73306;BME280;61530;51.158;0.880;2023-05-08T02:22:25;1017.08;;;10.4375;36.945
73306;BME280;61530;51.158;0.880;2023-05-08T02:23:28;1017.08;;;10.5625;36.4656
73306;BME280;61530;51.158;0.880;2023-05-08T02:24:31;1017.08;;;10.5625;35.9796
73306;BME280;61530;51.158;0.880;2023-05-08T02:25:34;1017.09;;;10.5;36.0888
73306;BME280;61530;51.158;0.880;2023-05-08T02:26:41;1017.11;;;10.5625;36.2296
73306;BME280;61530;51.158;0.880;2023-05-08T02:27:45;1017.12;;;10.6875;35.8187
73306;BME280;61530;51.158;0.880;2023-05-08T02:28:47;1017.13;;;10.6875;36.3069
73306;BME280;61530;51.158;0.880;2023-05-08T02:29:51;1017.15;;;10.6875;36.9592
73306;BME280;61530;51.158;0.880;2023-05-08T02:30:56;1017.17;;;10.625;36.8836
73306;BME280;61530;51.158;0.880;2023-05-08T02:32:00;1017.16;;;10.625;35.8619
73306;BME280;61530;51.158;0.880;2023-05-08T02:33:04;1017.19;;;10.5625;36.5621
73306;BME280;61530;51.158;0.880;2023-05-08T02:34:08;1017.18;;;10.5625;36.6383
73306;BME280;61530;51.158;0.880;2023-05-08T02:35:13;1017.19;;;10.5625;36.4586
73306;BME280;61530;51.158;0.880;2023-05-08T02:36:17;1017.18;;;10.5625;36.7779
73306;BME280;61530;51.158;0.880;2023-05-08T02:37:20;1017.16;;;10.5;36.7679
73306;BME280;61530;51.158;0.880;2023-05-08T02:38:23;1017.16;;;10.5;37.097
73306;BME280;61530;51.158;0.880;2023-05-08T02:39:30;1017.15;;;10.5;36.9633
73306;BME280;61530;51.158;0.880;2023-05-08T02:40:32;1017.15;;;10.375;36.7768
73306;BME280;61530;51.158;0.880;2023-05-08T02:41:36;1017.17;;;10.375;36.2045
73306;BME280;61530;51.158;0.880;2023-05-08T02:42:39;1017.17;;;10.375;36.7336
73306;BME280;61530;51.158;0.880;2023-05-08T02:43:44;1017.17;;;10.3125;36.3639
73306;BME280;61530;51.158;0.880;2023-05-08T02:44:47;1017.17;;;10.3125;36.1277
73306;BME280;61530;51.158;0.880;2023-05-08T02:45:58;1017.18;;;10.3125;36.9717
73306;BME280;61530;51.158;0.880;2023-05-08T02:46:57;1017.19;;;10.25;36.8266
73306;BME280;61530;51.158;0.880;2023-05-08T02:48:06;1017.18;;;10.25;36.8318
73306;BME280;61530;51.158;0.880;2023-05-08T02:49:07;1017.21;;;10.1875;36.7683
73306;BME280;61530;51.158;0.880;2023-05-08T02:50:14;1017.21;;;10.125;37.1586
73306;BME280;61530;51.158;0.880;2023-05-08T02:51:19;1017.21;;;10.125;36.3035
73306;BME280;61530;51.158;0.880;2023-05-08T02:52:21;1017.22;;;10.1875;35.871
73306;BME280;61530;51.158;0.880;2023-05-08T02:53:28;1017.2;;;10.25;36.0952
73306;BME280;61530;51.158;0.880;2023-05-08T02:54:29;1017.18;;;10.375;35.615
73306;BME280;61530;51.158;0.880;2023-05-08T02:55:33;1017.16;;;10.25;35.5872
73306;BME280;61530;51.158;0.880;2023-05-08T02:56:36;1017.16;;;10.1875;35.6915
73306;BME280;61530;51.158;0.880;2023-05-08T02:57:42;1017.13;;;10.0;36.0319
73306;BME280;61530;51.158;0.880;2023-05-08T02:58:43;1017.13;;;10.0625;35.46
73306;BME280;61530;51.158;0.880;2023-05-08T02:59:45;1017.15;;;9.875;35.6275
73306;BME280;61530;51.158;0.880;2023-05-08T03:00:55;1017.13;;;9.9375;35.6554
73306;BME280;61530;51.158;0.880;2023-05-08T03:01:57;1017.14;;;10.0;35.9942
73306;BME280;61530;51.158;0.880;2023-05-08T03:02:58;1017.15;;;10.125;35.6864
73306;BME280;61530;51.158;0.880;2023-05-08T03:04:03;1017.15;;;10.0625;36.5962
73306;BME280;61530;51.158;0.880;2023-05-08T03:05:10;1017.16;;;10.0;36.1907
73306;BME280;61530;51.158;0.880;2023-05-08T03:06:10;1017.18;;;10.0625;36.7247
73306;BME280;61530;51.158;0.880;2023-05-08T03:07:12;1017.17;;;10.0625;36.7018
73306;BME280;61530;51.158;0.880;2023-05-08T03:08:17;1017.19;;;10.0625;37.0872
73306;BME280;61530;51.158;0.880;2023-05-08T03:09:21;1017.18;;;9.9375;36.6886
73306;BME280;61530;51.158;0.880;2023-05-08T03:10:27;1017.16;;;9.9375;36.3868
73306;BME280;61530;51.158;0.880;2023-05-08T03:11:32;1017.16;;;9.8125;36.3816
73306;BME280;61530;51.158;0.880;2023-05-08T03:12:32;1017.16;;;9.875;36.9235
73306;BME280;61530;51.158;0.880;2023-05-08T03:13:38;1017.14;;;9.875;35.8939
73306;BME280;61530;51.158;0.880;2023-05-08T03:14:51;1017.14;;;9.875;35.3794
73306;BME280;61530;51.158;0.880;2023-05-08T03:15:45;1017.12;;;9.9375;36.0169
73306;BME280;61530;51.158;0.880;2023-05-08T03:16:47;1017.1;;;9.9375;35.7931
73306;BME280;61530;51.158;0.880;2023-05-08T03:17:55;1017.07;;;9.875;36.0204
73306;BME280;61530;51.158;0.880;2023-05-08T03:18:58;1017.07;;;9.875;36.5393
73306;BME280;61530;51.158;0.880;2023-05-08T03:20:03;1017.06;;;9.875;36.7602
73306;BME280;61530;51.158;0.880;2023-05-08T03:21:03;1017.06;;;10.0;36.7833
73306;BME280;61530;51.158;0.880;2023-05-08T03:22:09;1017.05;;;9.8125;36.811
73306;BME280;61530;51.158;0.880;2023-05-08T03:23:13;1017.04;;;9.8125;36.448
73306;BME280;61530;51.158;0.880;2023-05-08T03:24:16;1017.06;;;9.875;36.5696
73306;BME280;61530;51.158;0.880;2023-05-08T03:25:20;1017.04;;;9.9375;36.5693
73306;BME280;61530;51.158;0.880;2023-05-08T03:26:24;1017.02;;;9.9375;36.5466
73306;BME280;61530;51.158;0.880;2023-05-08T03:27:28;1017.02;;;9.875;36.3194
73306;BME280;61530;51.158;0.880;2023-05-08T03:28:32;1017.06;;;9.8125;36.0983
73306;BME280;61530;51.158;0.880;2023-05-08T03:29:35;1017.06;;;9.6875;36.5611
73306;BME280;61530;51.158;0.880;2023-05-08T03:30:41;1017.07;;;9.5625;36.1919
73306;BME280;61530;51.158;0.880;2023-05-08T03:31:43;1017.09;;;9.4375;36.4749
73306;BME280;61530;51.158;0.880;2023-05-08T03:32:47;1017.12;;;9.375;36.1925
73306;BME280;61530;51.158;0.880;2023-05-08T03:33:53;1017.14;;;9.5;36.504
73306;BME280;61530;51.158;0.880;2023-05-08T03:34:58;1017.15;;;9.5;36.7811
73306;BME280;61530;51.158;0.880;2023-05-08T03:35:59;1017.14;;;9.5;37.1199
73306;BME280;61530;51.158;0.880;2023-05-08T03:37:03;1017.18;;;9.625;35.6785
73306;BME280;61530;51.158;0.880;2023-05-08T03:38:06;1017.17;;;9.6875;35.7658
73306;BME280;61530;51.158;0.880;2023-05-08T03:39:12;1017.19;;;9.75;35.8121
73306;BME280;61530;51.158;0.880;2023-05-08T03:40:15;1017.19;;;9.75;36.3896
73306;BME280;61530;51.158;0.880;2023-05-08T03:41:19;1017.14;;;9.6875;36.5998
73306;BME280;61530;51.158;0.880;2023-05-08T03:42:22;1017.21;;;9.6875;36.6614
73306;BME280;61530;51.158;0.880;2023-05-08T03:43:29;1017.18;;;9.75;36.7788
73306;BME280;61530;51.158;0.880;2023-05-08T03:44:31;1017.19;;;9.75;36.9232
73306;BME280;61530;51.158;0.880;2023-05-08T03:45:36;1017.18;;;9.75;37.3975
73306;BME280;61530;51.158;0.880;2023-05-08T03:46:38;1017.16;;;9.75;37.4583
73306;BME280;61530;51.158;0.880;2023-05-08T03:47:44;1017.17;;;9.6875;36.8422
73306;BME280;61530;51.158;0.880;2023-05-08T03:48:48;1017.2;;;9.625;36.5755
73306;BME280;61530;51.158;0.880;2023-05-08T03:49:51;1017.17;;;9.8125;36.9334
73306;BME280;61530;51.158;0.880;2023-05-08T03:50:54;1017.19;;;9.6875;36.7593
73306;BME280;61530;51.158;0.880;2023-05-08T03:52:00;1017.2;;;9.625;37.0365
73306;BME280;61530;51.158;0.880;2023-05-08T03:53:04;1017.17;;;9.5625;36.5979
73306;BME280;61530;51.158;0.880;2023-05-08T03:54:07;1017.18;;;9.5625;36.2405
73306;BME280;61530;51.158;0.880;2023-05-08T03:55:10;1017.19;;;9.625;35.9749
73306;BME280;61530;51.158;0.880;2023-05-08T03:56:16;1017.22;;;9.625;36.5399
73306;BME280;61530;51.158;0.880;2023-05-08T03:57:19;1017.22;;;9.6875;36.4842
73306;BME280;61530;51.158;0.880;2023-05-08T03:58:27;1017.21;;;9.5625;36.8755
73306;BME280;61530;51.158;0.880;2023-05-08T03:59:37;1017.2;;;9.5625;36.5237
73306;BME280;61530;51.158;0.880;2023-05-08T04:00:42;1017.2;;;9.5625;36.5926
73306;BME280;61530;51.158;0.880;2023-05-08T04:01:38;1017.2;;;9.5625;36.3437
73306;BME280;61530;51.158;0.880;2023-05-08T04:02:46;1017.16;;;9.625;36.2514
73306;BME280;61530;51.158;0.880;2023-05-08T04:03:53;1017.14;;;9.625;35.5496
73306;BME280;61530;51.158;0.880;2023-05-08T04:04:54;1017.14;;;9.6875;36.4784
73306;BME280;61530;51.158;0.880;2023-05-08T04:05:59;1017.15;;;9.6875;36.7899
73306;BME280;61530;51.158;0.880;2023-05-08T04:07:01;1017.16;;;9.6875;36.4155
73306;BME280;61530;51.158;0.880;2023-05-08T04:08:08;1017.13;;;9.625;36.8831
73306;BME280;61530;51.158;0.880;2023-05-08T04:09:07;1017.16;;;9.625;36.0325
73306;BME280;61530;51.158;0.880;2023-05-08T04:10:10;1017.15;;;9.6875;36.2396
73306;BME280;61530;51.158;0.880;2023-05-08T04:11:17;1017.14;;;9.5625;36.0727
73306;BME280;61530;51.158;0.880;2023-05-08T04:12:18;1017.16;;;9.4375;36.6436
73306;BME280;61530;51.158;0.880;2023-05-08T04:13:24;1017.14;;;9.4375;35.952
73306;BME280;61530;51.158;0.880;2023-05-08T04:14:26;1017.14;;;9.5;35.64
73306;BME280;61530;51.158;0.880;2023-05-08T04:15:30;1017.15;;;9.5625;35.912
73306;BME280;61530;51.158;0.880;2023-05-08T04:16:35;1017.15;;;9.5625;36.4991
73306;BME280;61530;51.158;0.880;2023-05-08T04:17:41;1017.14;;;9.4375;36.4307
73306;BME280;61530;51.158;0.880;2023-05-08T04:18:45;1017.1;;;9.5625;36.4725
73306;BME280;61530;51.158;0.880;2023-05-08T04:19:45;1017.1;;;9.5625;35.8133
73306;BME280;61530;51.158;0.880;2023-05-08T04:20:47;1017.08;;;9.5625;36.3434
73306;BME280;61530;51.158;0.880;2023-05-08T04:21:56;1017.05;;;9.5625;36.1391
73306;BME280;61530;51.158;0.880;2023-05-08T04:22:57;1017.05;;;9.5625;36.4043
73306;BME280;61530;51.158;0.880;2023-05-08T04:23:59;1017.07;;;9.5625;36.6805
73306;BME280;61530;51.158;0.880;2023-05-08T04:25:05;1017.07;;;9.625;37.102
73306;BME280;61530;51.158;0.880;2023-05-08T04:26:08;1017.1;;;9.6875;36.5088
73306;BME280;61530;51.158;0.880;2023-05-08T04:27:12;1017.11;;;9.6875;36.9977
73306;BME280;61530;51.158;0.880;2023-05-08T04:28:15;1017.12;;;9.5625;36.2536
73306;BME280;61530;51.158;0.880;2023-05-08T04:29:18;1017.12;;;9.5;36.7775
73306;BME280;61530;51.158;0.880;2023-05-08T04:30:24;1017.14;;;9.375;36.621
73306;BME280;61530;51.158;0.880;2023-05-08T04:31:27;1017.12;;;9.375;37.0132
73306;BME280;61530;51.158;0.880;2023-05-08T04:32:31;1017.12;;;9.5;35.8934
73306;BME280;61530;51.158;0.880;2023-05-08T04:33:34;1017.09;;;9.5625;35.5605
73306;BME280;61530;51.158;0.880;2023-05-08T04:34:40;1017.1;;;9.75;36.0688
73306;BME280;61530;51.158;0.880;2023-05-08T04:35:43;1017.11;;;9.875;36.3226
73306;BME280;61530;51.158;0.880;2023-05-08T04:36:47;1017.1;;;9.875;36.1395
73306;BME280;61530;51.158;0.880;2023-05-08T04:37:50;1017.1;;;9.75;34.5278
73306;BME280;61530;51.158;0.880;2023-05-08T04:38:56;1017.12;;;9.625;36.2984
73306;BME280;61530;51.158;0.880;2023-05-08T04:40:00;1017.15;;;9.625;37.8352
73306;BME280;61530;51.158;0.880;2023-05-08T04:41:03;1017.15;;;9.5625;36.8577
73306;BME280;61530;51.158;0.880;2023-05-08T04:42:06;1017.14;;;9.5625;37.9671
73306;BME280;61530;51.158;0.880;2023-05-08T04:43:12;1017.13;;;9.625;38.6409
73306;BME280;61530;51.158;0.880;2023-05-08T04:44:15;1017.13;;;9.6875;37.0992
73306;BME280;61530;51.158;0.880;2023-05-08T04:45:19;1017.11;;;9.8125;37.5653
73306;BME280;61530;51.158;0.880;2023-05-08T04:46:22;1017.11;;;9.8125;37.248
73306;BME280;61530;51.158;0.880;2023-05-08T04:47:28;1017.12;;;9.8125;38.4903
73306;BME280;61530;51.158;0.880;2023-05-08T04:48:31;1017.14;;;9.8125;38.8984
73306;BME280;61530;51.158;0.880;2023-05-08T04:49:35;1017.15;;;9.625;38.7426
73306;BME280;61530;51.158;0.880;2023-05-08T04:50:38;1017.14;;;9.75;38.3508
73306;BME280;61530;51.158;0.880;2023-05-08T04:51:44;1017.15;;;9.8125;37.3075
73306;BME280;61530;51.158;0.880;2023-05-08T04:52:47;1017.15;;;9.9375;38.4775
73306;BME280;61530;51.158;0.880;2023-05-08T04:53:51;1017.15;;;10.125;39.2718
73306;BME280;61530;51.158;0.880;2023-05-08T04:54:54;1017.18;;;10.0;38.7935
73306;BME280;61530;51.158;0.880;2023-05-08T04:56:00;1017.18;;;9.8125;38.3261
73306;BME280;61530;51.158;0.880;2023-05-08T04:57:03;1017.18;;;9.875;38.5623
73306;BME280;61530;51.158;0.880;2023-05-08T04:58:07;1017.18;;;9.875;38.1756
73306;BME280;61530;51.158;0.880;2023-05-08T04:59:10;1017.18;;;9.8125;38.3661
73306;BME280;61530;51.158;0.880;2023-05-08T05:00:16;1017.17;;;9.8125;37.7027
73306;BME280;61530;51.158;0.880;2023-05-08T05:01:19;1017.17;;;9.875;38.3076
73306;BME280;61530;51.158;0.880;2023-05-08T05:02:25;1017.19;;;9.875;38.4402
73306;BME280;61530;51.158;0.880;2023-05-08T05:03:26;1017.2;;;10.0;38.4227
73306;BME280;61530;51.158;0.880;2023-05-08T05:04:32;1017.18;;;10.1875;38.3657
73306;BME280;61530;51.158;0.880;2023-05-08T05:05:35;1017.19;;;10.0625;38.0305
73306;BME280;61530;51.158;0.880;2023-05-08T05:06:39;1017.19;;;10.0;38.6012
73306;BME280;61530;51.158;0.880;2023-05-08T05:07:42;1017.19;;;10.0;37.9084
73306;BME280;61530;51.158;0.880;2023-05-08T05:08:48;1017.21;;;10.0;37.8969
73306;BME280;61530;51.158;0.880;2023-05-08T05:09:51;1017.23;;;10.0625;38.7117
73306;BME280;61530;51.158;0.880;2023-05-08T05:10:55;1017.21;;;10.125;38.9245
73306;BME280;61530;51.158;0.880;2023-05-08T05:11:58;1017.24;;;10.25;38.9241
73306;BME280;61530;51.158;0.880;2023-05-08T05:13:04;1017.24;;;10.4375;38.3982
73306;BME280;61530;51.158;0.880;2023-05-08T05:14:07;1017.26;;;10.5;38.2887
73306;BME280;61530;51.158;0.880;2023-05-08T05:15:11;1017.27;;;10.5;39.3516
73306;BME280;61530;51.158;0.880;2023-05-08T05:16:14;1017.29;;;10.3125;39.7094
73306;BME280;61530;51.158;0.880;2023-05-08T05:17:20;1017.31;;;10.3125;41.2853
73306;BME280;61530;51.158;0.880;2023-05-08T05:18:23;1017.32;;;10.3125;40.1639
73306;BME280;61530;51.158;0.880;2023-05-08T05:19:27;1017.32;;;10.4375;40.1236
73306;BME280;61530;51.158;0.880;2023-05-08T05:20:30;1017.33;;;10.4375;40.3078
73306;BME280;61530;51.158;0.880;2023-05-08T05:21:36;1017.37;;;10.4375;40.2733
73306;BME280;61530;51.158;0.880;2023-05-08T05:22:39;1017.37;;;10.375;40.1639
73306;BME280;61530;51.158;0.880;2023-05-08T05:23:43;1017.38;;;10.375;39.288
73306;BME280;61530;51.158;0.880;2023-05-08T05:24:46;1017.37;;;10.4375;39.2813
73306;BME280;61530;51.158;0.880;2023-05-08T05:25:52;1017.35;;;10.4375;39.2467
73306;BME280;61530;51.158;0.880;2023-05-08T05:26:55;1017.37;;;10.5;38.6924
73306;BME280;61530;51.158;0.880;2023-05-08T05:27:59;1017.38;;;10.5;38.7209
73306;BME280;61530;51.158;0.880;2023-05-08T05:29:02;1017.38;;;10.4375;38.9405
73306;BME280;61530;51.158;0.880;2023-05-08T05:30:08;1017.38;;;10.5;38.7958
73306;BME280;61530;51.158;0.880;2023-05-08T05:31:11;1017.37;;;10.5;39.4317
73306;BME280;61530;51.158;0.880;2023-05-08T05:32:15;1017.39;;;10.6875;39.2933
73306;BME280;61530;51.158;0.880;2023-05-08T05:33:18;1017.42;;;10.625;39.2921
73306;BME280;61530;51.158;0.880;2023-05-08T05:34:24;1017.41;;;10.75;39.6154
73306;BME280;61530;51.158;0.880;2023-05-08T05:35:27;1017.39;;;10.6875;38.2757